Hovedside
METAR-TAF:

METAR-TAF

Lufthavner :

Honningsvåg lufthavn. Valan

Honningsvåg, Norge

breddegrad: 71-01N, lengdegrad: 025-59E, høyde over havet: 1 m

Gjeldene værobservasjon

Denne rapporten ble laget for 1 time og 5 minutter siden, klokken 03:50 UTC
Vind 7 kt fra Nord-nordvest
Temperatur 7°C
Luftfuktighet 100%
Trykk 997 hPa
Sikt: 6000 m
Overskyet i en høyde av 300 ft
lett duskregn

METAR: ENHV 210350Z 34007KT 6000 -DZ OVC003 07/07 Q0997

Tid: 06:55 (04:55 UTC)


TAF: fraværende

Værobservasjoner og værvarsel for over 4000 flyplasser (METAR- og TAF-rapporter).

Tilgjengelige stasjoner er representert av de røde og gule prikkene på kartet.

Hold musepekeren over prikken for å se navnet på stasjonen.

Klikk så for å se værobservasjoner og -varsler.

For å forandre kartet kan du klikke på den grønne knappen med svart kryss for å zoome inn, på den grønne knappen med strek for å zoome ut, eller på de grønne pilene for å se tilstøtende kart.


METAR-TAF: